createdAt,value
2023-05-07T00:00:10.034Z,4.36
2023-05-07T00:02:39.693Z,4.29
2023-05-07T00:05:11.071Z,4.27
2023-05-07T00:07:40.079Z,4.30
2023-05-07T00:10:10.392Z,4.36
2023-05-07T00:12:39.288Z,4.35
2023-05-07T00:15:09.836Z,4.29
2023-05-07T00:17:39.136Z,4.32
2023-05-07T00:20:09.426Z,4.31
2023-05-07T00:22:39.571Z,4.29
2023-05-07T00:25:09.074Z,4.24
2023-05-07T00:27:37.999Z,4.13
2023-05-07T00:30:08.417Z,4.06
2023-05-07T00:32:38.198Z,4.07
2023-05-07T00:35:08.252Z,3.99
2023-05-07T00:37:36.914Z,4.08
2023-05-07T00:40:09.653Z,4.02
2023-05-07T00:42:39.102Z,3.85
2023-05-07T00:45:09.399Z,3.94
2023-05-07T00:47:38.001Z,3.99
2023-05-07T00:50:08.413Z,3.91
2023-05-07T00:52:36.983Z,3.92
2023-05-07T00:55:09.123Z,3.94
2023-05-07T00:57:40.475Z,3.78
2023-05-07T01:00:11.224Z,3.78
2023-05-07T01:02:40.924Z,3.68
2023-05-07T01:05:12.669Z,3.84
2023-05-07T01:07:43.217Z,3.82
2023-05-07T01:10:14.667Z,3.95
2023-05-07T01:12:44.249Z,3.88
2023-05-07T01:15:13.498Z,3.74
2023-05-07T01:17:43.885Z,3.77
2023-05-07T01:20:22.277Z,3.78
2023-05-07T01:22:54.357Z,3.58
2023-05-07T01:25:23.646Z,3.64
2023-05-07T01:27:55.518Z,3.66
2023-05-07T01:30:29.076Z,3.53
2023-05-07T01:33:02.718Z,3.75
2023-05-07T01:35:34.899Z,3.72
2023-05-07T01:38:07.188Z,3.72
2023-05-07T01:40:36.325Z,3.66
2023-05-07T01:43:05.635Z,3.68
2023-05-07T01:45:36.793Z,3.62
2023-05-07T01:48:06.700Z,3.70
2023-05-07T01:50:37.434Z,3.69
2023-05-07T01:53:07.962Z,3.78
2023-05-07T01:55:37.951Z,3.74
2023-05-07T01:58:07.260Z,3.74
2023-05-07T02:00:37.139Z,3.65
2023-05-07T02:03:06.703Z,3.56
2023-05-07T02:05:53.113Z,3.64
2023-05-07T02:08:35.177Z,3.61
2023-05-07T02:11:04.962Z,3.59
2023-05-07T02:13:35.460Z,3.65
2023-05-07T02:16:04.665Z,3.55
2023-05-07T02:18:34.425Z,3.60
2023-05-07T02:21:03.544Z,3.71
2023-05-07T02:23:32.476Z,3.66
2023-05-07T02:26:03.107Z,3.49
2023-05-07T02:28:31.844Z,3.63
2023-05-07T02:31:05.324Z,3.61
2023-05-07T02:33:36.074Z,3.78
2023-05-07T02:36:10.885Z,3.73
2023-05-07T02:38:54.860Z,3.74
2023-05-07T02:41:25.573Z,3.68
2023-05-07T02:43:54.119Z,3.66
2023-05-07T02:46:23.796Z,3.62
2023-05-07T02:49:00.650Z,3.57
2023-05-07T02:51:29.563Z,3.67
2023-05-07T02:54:01.983Z,3.70
2023-05-07T02:56:33.212Z,3.66
2023-05-07T02:59:01.863Z,3.83
2023-05-07T03:01:35.070Z,3.77
2023-05-07T03:04:07.190Z,3.84
2023-05-07T03:06:36.252Z,3.87
2023-05-07T03:09:05.421Z,3.73
2023-05-07T03:11:36.705Z,3.70
2023-05-07T03:14:05.945Z,3.80
2023-05-07T03:16:34.701Z,3.67
2023-05-07T03:19:03.714Z,3.66
2023-05-07T03:21:34.847Z,3.47
2023-05-07T03:24:03.985Z,3.69
2023-05-07T03:26:32.874Z,3.76
2023-05-07T03:29:03.330Z,3.85
2023-05-07T03:31:31.886Z,3.89
2023-05-07T03:34:01.854Z,3.89
2023-05-07T03:36:31.709Z,3.96
2023-05-07T03:39:00.637Z,4.02
2023-05-07T03:41:37.476Z,4.12
2023-05-07T03:44:08.231Z,4.09
2023-05-07T03:46:36.890Z,4.15
2023-05-07T03:49:05.947Z,3.80
2023-05-07T03:51:37.820Z,3.84
2023-05-07T03:54:08.843Z,3.89
2023-05-07T03:56:38.526Z,3.95
2023-05-07T03:59:09.008Z,4.09
2023-05-07T04:01:37.686Z,4.19
2023-05-07T04:04:06.759Z,4.16
2023-05-07T04:06:37.809Z,4.26
2023-05-07T04:09:06.713Z,4.29
2023-05-07T04:11:35.862Z,4.03
2023-05-07T04:14:04.884Z,4.00
2023-05-07T04:16:35.010Z,4.14
2023-05-07T04:19:04.707Z,4.23
2023-05-07T04:21:34.755Z,4.21
2023-05-07T04:24:05.336Z,4.28
2023-05-07T04:26:35.121Z,4.32
2023-05-07T04:29:04.830Z,4.24
2023-05-07T04:31:37.255Z,4.22
2023-05-07T04:34:06.601Z,4.31
2023-05-07T04:36:35.626Z,4.24
2023-05-07T04:39:11.554Z,4.45
2023-05-07T04:41:42.705Z,4.44
2023-05-07T04:44:12.399Z,4.49
2023-05-07T04:46:42.723Z,4.42
2023-05-07T04:49:11.413Z,4.46
2023-05-07T04:51:45.089Z,4.54
2023-05-07T04:54:15.616Z,4.59
2023-05-07T04:56:44.570Z,4.58
2023-05-07T04:59:13.693Z,4.55
2023-05-07T05:01:44.073Z,4.68
2023-05-07T05:04:14.687Z,4.81
2023-05-07T05:06:43.749Z,4.88
2023-05-07T05:09:13.816Z,4.93
2023-05-07T05:11:44.300Z,5.08
2023-05-07T05:14:13.203Z,5.19
2023-05-07T05:16:44.069Z,5.22
2023-05-07T05:19:13.330Z,5.38
2023-05-07T05:21:43.548Z,5.59
2023-05-07T05:24:13.131Z,5.68
2023-05-07T05:26:42.398Z,5.81
2023-05-07T05:29:11.533Z,5.69
2023-05-07T05:31:44.458Z,5.93
2023-05-07T05:34:13.830Z,6.07
2023-05-07T05:36:43.478Z,6.24
2023-05-07T05:39:12.507Z,6.34
2023-05-07T05:41:41.518Z,6.23
2023-05-07T05:44:11.048Z,6.32
2023-05-07T05:46:40.266Z,6.52
2023-05-07T05:49:11.268Z,6.71
2023-05-07T05:51:40.990Z,6.35
2023-05-07T05:54:10.078Z,6.32
2023-05-07T05:56:39.810Z,6.54
2023-05-07T05:59:09.978Z,6.66
2023-05-07T06:01:38.839Z,6.67
2023-05-07T06:04:07.808Z,6.50
2023-05-07T06:06:38.571Z,6.49
2023-05-07T06:09:07.796Z,6.85
2023-05-07T06:11:42.087Z,7.03
2023-05-07T06:14:12.375Z,6.91
2023-05-07T06:16:41.511Z,6.98
2023-05-07T06:19:10.824Z,6.82
2023-05-07T06:21:42.734Z,7.08
2023-05-07T06:24:11.558Z,7.30
2023-05-07T06:26:41.912Z,7.47
2023-05-07T06:29:11.135Z,7.46
2023-05-07T06:31:41.802Z,7.45
2023-05-07T06:34:15.316Z,7.80
2023-05-07T06:36:46.134Z,8.11
2023-05-07T06:39:25.852Z,7.63
2023-05-07T06:41:55.407Z,7.62
2023-05-07T06:44:29.169Z,8.02
2023-05-07T06:47:15.680Z,8.19
2023-05-07T06:49:46.541Z,7.98
2023-05-07T06:52:20.162Z,8.11
2023-05-07T06:54:52.865Z,7.81
2023-05-07T06:57:24.141Z,7.86
2023-05-07T06:59:53.249Z,8.04
2023-05-07T07:02:23.303Z,8.14
2023-05-07T07:04:52.484Z,8.63
2023-05-07T07:07:23.675Z,8.61
2023-05-07T07:09:53.629Z,8.97
2023-05-07T07:12:23.857Z,8.96
2023-05-07T07:14:55.126Z,8.96
2023-05-07T07:17:24.989Z,9.29
2023-05-07T07:19:54.420Z,9.45
2023-05-07T07:22:24.792Z,9.25
2023-05-07T07:24:54.112Z,9.50
2023-05-07T07:27:23.465Z,10.08
2023-05-07T07:29:52.714Z,9.76
2023-05-07T07:32:21.947Z,10.15
2023-05-07T07:34:50.724Z,10.08
2023-05-07T07:37:19.708Z,9.59
2023-05-07T07:39:50.032Z,9.72
2023-05-07T07:42:19.339Z,9.84
2023-05-07T07:44:48.354Z,9.86
2023-05-07T07:47:19.327Z,10.43
2023-05-07T07:49:50.245Z,10.54
2023-05-07T07:52:19.259Z,10.23
2023-05-07T07:54:50.191Z,10.19
2023-05-07T07:57:19.312Z,10.35
2023-05-07T07:59:49.587Z,10.06
2023-05-07T08:02:18.964Z,9.66
2023-05-07T08:04:48.081Z,10.05
2023-05-07T08:07:19.544Z,9.90
2023-05-07T08:09:52.422Z,9.98
2023-05-07T08:12:24.776Z,10.02
2023-05-07T08:14:53.956Z,10.10
2023-05-07T08:17:24.385Z,10.02
2023-05-07T08:19:53.344Z,10.44
2023-05-07T08:22:23.232Z,9.90
2023-05-07T08:24:55.031Z,9.98
2023-05-07T08:27:24.761Z,9.86
2023-05-07T08:29:55.978Z,9.98
2023-05-07T08:32:25.328Z,10.34
2023-05-07T08:34:54.171Z,10.64
2023-05-07T08:37:23.420Z,11.05
2023-05-07T08:39:54.158Z,10.88
2023-05-07T08:42:26.983Z,11.66
2023-05-07T08:45:00.497Z,12.46
2023-05-07T08:47:32.517Z,12.50
2023-05-07T08:50:04.419Z,11.96
2023-05-07T08:52:33.241Z,11.43
2023-05-07T08:55:05.129Z,10.93
2023-05-07T08:57:35.001Z,10.88
2023-05-07T09:00:05.212Z,10.73
2023-05-07T09:02:34.960Z,10.82
2023-05-07T09:05:04.065Z,11.03
2023-05-07T09:07:33.062Z,11.27
2023-05-07T09:10:05.494Z,10.33
2023-05-07T09:12:36.453Z,9.77
2023-05-07T09:15:08.816Z,9.72
2023-05-07T09:17:39.738Z,9.20
2023-05-07T09:20:11.080Z,9.00
2023-05-07T09:22:41.081Z,8.82
2023-05-07T09:25:15.168Z,9.50
2023-05-07T09:27:45.065Z,10.09
2023-05-07T09:30:15.151Z,10.48
2023-05-07T09:32:44.241Z,9.88
2023-05-07T09:35:19.498Z,9.92
2023-05-07T09:37:53.424Z,10.92
2023-05-07T09:40:28.449Z,11.01
2023-05-07T09:43:11.628Z,10.66
2023-05-07T09:45:43.714Z,10.71
2023-05-07T09:48:13.695Z,10.75
2023-05-07T09:50:48.331Z,11.08
2023-05-07T09:53:18.920Z,12.62
2023-05-07T09:55:49.696Z,12.40
2023-05-07T09:58:19.179Z,11.83
2023-05-07T10:00:49.600Z,10.90
2023-05-07T10:03:20.292Z,11.11
2023-05-07T10:06:01.158Z,10.81
2023-05-07T10:08:31.698Z,10.15
2023-05-07T10:11:04.138Z,9.83
2023-05-07T10:13:33.793Z,9.24
2023-05-07T10:16:03.114Z,9.22
2023-05-07T10:18:36.912Z,9.39
2023-05-07T10:21:15.633Z,10.01
2023-05-07T10:23:47.620Z,11.81
2023-05-07T10:26:19.705Z,14.46
2023-05-07T10:28:51.636Z,15.37
2023-05-07T10:31:30.851Z,13.77
2023-05-07T10:34:00.750Z,12.77
2023-05-07T10:36:30.360Z,11.26
2023-05-07T10:39:00.670Z,10.32
2023-05-07T10:41:31.502Z,10.17
2023-05-07T10:44:02.445Z,9.93
2023-05-07T10:46:36.596Z,9.81
2023-05-07T10:49:17.445Z,10.21
2023-05-07T10:52:17.051Z,10.36
2023-05-07T10:55:26.507Z,10.03
2023-05-07T11:01:15.921Z,10.12
2023-05-07T11:04:15.232Z,10.55
2023-05-07T11:07:27.467Z,10.74
2023-05-07T11:10:05.848Z,11.25
2023-05-07T11:13:04.327Z,11.94
2023-05-07T11:15:47.338Z,11.89
2023-05-07T11:18:24.083Z,11.64
2023-05-07T11:20:58.237Z,11.67
2023-05-07T11:24:01.204Z,11.76
2023-05-07T11:26:50.215Z,14.44
2023-05-07T11:29:22.487Z,14.96
2023-05-07T11:31:57.978Z,15.26
2023-05-07T11:34:31.657Z,15.07
2023-05-07T11:37:01.526Z,14.41
2023-05-07T11:40:10.482Z,14.86
2023-05-07T11:42:40.953Z,13.79
2023-05-07T11:45:11.136Z,12.41
2023-05-07T11:47:44.149Z,12.13
2023-05-07T11:50:14.068Z,12.72
2023-05-07T11:52:42.623Z,12.83
2023-05-07T11:55:11.663Z,13.03
2023-05-07T11:57:40.745Z,13.28
2023-05-07T12:00:10.904Z,13.33
2023-05-07T12:02:45.873Z,13.35
2023-05-07T12:05:15.387Z,13.90
2023-05-07T12:07:44.226Z,13.93
2023-05-07T12:10:14.941Z,13.59
2023-05-07T12:12:44.141Z,13.62
2023-05-07T12:15:13.463Z,14.00
2023-05-07T12:17:46.460Z,13.88
2023-05-07T12:20:15.760Z,12.65
2023-05-07T12:22:44.330Z,12.30
2023-05-07T12:25:16.292Z,12.30
2023-05-07T12:27:45.509Z,12.59
2023-05-07T12:30:15.629Z,12.44
2023-05-07T12:32:46.121Z,12.21
2023-05-07T12:35:15.149Z,12.27
2023-05-07T12:37:43.694Z,11.94
2023-05-07T12:40:14.050Z,12.87
2023-05-07T12:42:43.547Z,13.40
2023-05-07T12:45:13.993Z,12.91
2023-05-07T12:47:47.840Z,12.95
2023-05-07T12:50:17.312Z,12.82
2023-05-07T12:52:46.741Z,13.43
2023-05-07T12:55:17.507Z,13.84
2023-05-07T12:57:50.320Z,14.13
2023-05-07T13:00:19.457Z,13.94
2023-05-07T13:02:49.887Z,14.49
2023-05-07T13:05:19.098Z,14.29
2023-05-07T13:07:55.854Z,16.96
2023-05-07T13:10:25.389Z,19.69
2023-05-07T13:12:54.685Z,21.33
2023-05-07T13:15:24.444Z,19.61
2023-05-07T13:17:54.908Z,17.29
2023-05-07T13:20:24.020Z,15.88
2023-05-07T13:22:52.776Z,14.56
2023-05-07T13:25:21.799Z,14.25
2023-05-07T13:27:59.726Z,14.32
2023-05-07T13:30:39.066Z,14.46
2023-05-07T13:33:09.943Z,14.99
2023-05-07T13:35:39.335Z,14.71
2023-05-07T13:38:08.363Z,14.35
2023-05-07T13:40:36.966Z,13.86
2023-05-07T13:43:06.011Z,14.55
2023-05-07T13:45:35.275Z,15.45
2023-05-07T13:48:07.144Z,15.86
2023-05-07T13:50:39.418Z,14.82
2023-05-07T13:53:09.779Z,14.39
2023-05-07T13:55:38.405Z,14.24
2023-05-07T13:58:07.660Z,13.17
2023-05-07T14:00:36.889Z,13.64
2023-05-07T14:03:07.279Z,14.82
2023-05-07T14:05:37.038Z,16.19
2023-05-07T14:08:08.925Z,16.90
2023-05-07T14:10:37.515Z,17.68
2023-05-07T14:13:06.484Z,16.88
2023-05-07T14:15:35.507Z,17.34
2023-05-07T14:18:04.608Z,18.47
2023-05-07T14:20:33.864Z,18.12
2023-05-07T14:23:02.926Z,17.64
2023-05-07T14:25:33.110Z,17.66
2023-05-07T14:28:02.097Z,17.72
2023-05-07T14:30:30.971Z,17.73
2023-05-07T14:33:00.005Z,18.99
2023-05-07T14:35:29.270Z,20.38
2023-05-07T14:37:58.274Z,20.90
2023-05-07T14:40:27.141Z,19.58
2023-05-07T14:42:58.893Z,18.45
2023-05-07T14:45:28.004Z,17.63
2023-05-07T14:47:56.920Z,17.65
2023-05-07T14:50:26.309Z,17.54
2023-05-07T14:52:54.841Z,18.37
2023-05-07T14:55:23.810Z,18.99
2023-05-07T14:57:53.680Z,18.65
2023-05-07T15:00:24.117Z,18.63
2023-05-07T15:02:53.269Z,18.85
2023-05-07T15:05:22.263Z,19.48
2023-05-07T15:07:50.844Z,20.26
2023-05-07T15:10:19.926Z,20.56
2023-05-07T15:12:49.036Z,18.78
2023-05-07T15:15:17.993Z,16.52
2023-05-07T15:17:48.706Z,15.89
2023-05-07T15:20:18.653Z,16.39
2023-05-07T15:22:47.139Z,17.85
2023-05-07T15:25:16.381Z,19.83
2023-05-07T15:27:46.039Z,21.26
2023-05-07T15:30:16.418Z,23.01
2023-05-07T15:32:45.493Z,24.85
2023-05-07T15:35:15.946Z,25.56
2023-05-07T15:37:44.759Z,24.34
2023-05-07T15:40:15.302Z,25.02
2023-05-07T15:42:44.398Z,23.96
2023-05-07T15:45:13.797Z,23.35
2023-05-07T15:47:43.039Z,24.34
2023-05-07T15:50:12.673Z,25.32
2023-05-07T15:52:42.757Z,24.61
2023-05-07T15:55:12.363Z,23.52
2023-05-07T15:57:41.749Z,21.97
2023-05-07T16:00:12.661Z,22.53
2023-05-07T16:02:41.939Z,23.16
2023-05-07T16:05:12.154Z,23.95
2023-05-07T16:07:44.277Z,23.64
2023-05-07T16:10:13.532Z,22.01
2023-05-07T16:12:42.661Z,22.81
2023-05-07T16:15:12.590Z,22.32
2023-05-07T16:17:41.748Z,21.77
2023-05-07T16:20:13.252Z,21.58
2023-05-07T16:22:43.304Z,22.15
2023-05-07T16:25:14.851Z,20.71
2023-05-07T16:27:43.907Z,21.23
2023-05-07T16:30:13.305Z,22.14
2023-05-07T16:32:42.313Z,22.95
2023-05-07T16:35:12.559Z,23.03
2023-05-07T16:37:43.291Z,23.18
2023-05-07T16:40:13.121Z,22.26
2023-05-07T16:42:42.224Z,22.63
2023-05-07T16:45:12.463Z,22.58
2023-05-07T16:47:41.671Z,22.25
2023-05-07T16:50:11.455Z,22.02
2023-05-07T16:52:40.045Z,22.39
2023-05-07T16:55:11.417Z,21.21
2023-05-07T16:57:40.797Z,21.80
2023-05-07T17:00:11.786Z,21.74
2023-05-07T17:02:41.013Z,19.26
2023-05-07T17:05:11.160Z,17.97
2023-05-07T17:07:40.598Z,18.77
2023-05-07T17:10:12.037Z,17.58
2023-05-07T17:12:41.297Z,14.56
2023-05-07T17:15:11.694Z,13.58
2023-05-07T17:17:42.163Z,14.04
2023-05-07T17:20:11.789Z,13.96
2023-05-07T17:22:40.630Z,13.89
2023-05-07T17:25:13.021Z,14.60
2023-05-07T17:27:43.934Z,14.70
2023-05-07T17:30:14.015Z,13.06
2023-05-07T17:32:43.645Z,11.70
2023-05-07T17:35:12.556Z,10.14
2023-05-07T17:37:41.988Z,9.14
2023-05-07T17:40:13.372Z,8.94
2023-05-07T17:42:43.158Z,8.62
2023-05-07T17:45:13.307Z,8.53
2023-05-07T17:47:42.430Z,8.07
2023-05-07T17:50:12.690Z,7.86
2023-05-07T17:52:42.647Z,8.14
2023-05-07T17:55:14.338Z,7.76
2023-05-07T17:57:43.724Z,7.38
2023-05-07T18:00:13.942Z,7.62
2023-05-07T18:02:43.491Z,7.44
2023-05-07T18:05:12.822Z,7.28
2023-05-07T18:07:41.338Z,7.07
2023-05-07T18:10:11.437Z,6.92
2023-05-07T18:12:41.956Z,7.03
2023-05-07T18:15:11.515Z,6.89
2023-05-07T18:17:41.259Z,6.87
2023-05-07T18:20:11.921Z,6.67
2023-05-07T18:22:41.618Z,6.61
2023-05-07T18:25:10.836Z,6.53
2023-05-07T18:27:41.356Z,6.61
2023-05-07T18:30:11.698Z,6.45
2023-05-07T18:32:41.007Z,6.54
2023-05-07T18:35:10.564Z,6.22
2023-05-07T18:37:39.224Z,6.41
2023-05-07T18:40:09.390Z,6.39
2023-05-07T18:42:38.482Z,6.26
2023-05-07T18:45:09.726Z,6.28
2023-05-07T18:47:38.707Z,5.94
2023-05-07T18:50:08.545Z,5.95
2023-05-07T18:52:37.383Z,5.83
2023-05-07T18:55:07.471Z,5.77
2023-05-07T18:57:36.961Z,5.78
2023-05-07T19:00:11.241Z,5.64
2023-05-07T19:02:40.495Z,5.71
2023-05-07T19:05:10.808Z,5.50
2023-05-07T19:07:39.664Z,5.30
2023-05-07T19:10:09.744Z,5.32
2023-05-07T19:12:38.949Z,5.34
2023-05-07T19:15:10.857Z,5.52
2023-05-07T19:17:40.250Z,5.42
2023-05-07T19:20:10.914Z,5.34
2023-05-07T19:22:39.498Z,5.37
2023-05-07T19:25:10.012Z,5.33
2023-05-07T19:27:39.385Z,5.37
2023-05-07T19:30:13.016Z,5.19
2023-05-07T19:32:42.007Z,4.99
2023-05-07T19:35:11.468Z,5.12
2023-05-07T19:37:40.720Z,5.16
2023-05-07T19:40:10.792Z,5.17
2023-05-07T19:42:39.841Z,4.87
2023-05-07T19:45:11.426Z,4.90
2023-05-07T19:47:40.776Z,4.81
2023-05-07T19:50:10.850Z,4.87
2023-05-07T19:52:39.817Z,5.11
2023-05-07T19:55:09.980Z,4.83
2023-05-07T19:57:38.947Z,4.96
2023-05-07T20:00:11.275Z,4.85
2023-05-07T20:02:43.464Z,4.77
2023-05-07T20:05:15.740Z,4.92
2023-05-07T20:07:46.253Z,4.85
2023-05-07T20:10:15.906Z,4.73
2023-05-07T20:12:44.854Z,4.85
2023-05-07T20:15:15.741Z,4.89
2023-05-07T20:17:44.818Z,4.74
2023-05-07T20:20:14.692Z,4.62
2023-05-07T20:22:43.512Z,4.77
2023-05-07T20:25:15.013Z,4.82
2023-05-07T20:27:44.146Z,4.77
2023-05-07T20:30:15.702Z,4.73
2023-05-07T20:32:44.901Z,4.71
2023-05-07T20:35:14.598Z,4.72
2023-05-07T20:37:43.343Z,4.67
2023-05-07T20:40:12.665Z,4.61
2023-05-07T20:42:42.696Z,4.65
2023-05-07T20:45:13.144Z,4.57
2023-05-07T20:47:43.714Z,4.63
2023-05-07T20:50:13.300Z,4.55
2023-05-07T20:52:43.000Z,4.53
2023-05-07T20:55:12.024Z,4.52
2023-05-07T20:57:40.912Z,4.49
2023-05-07T21:00:11.088Z,4.39
2023-05-07T21:02:40.054Z,4.39
2023-05-07T21:05:11.186Z,4.41
2023-05-07T21:07:40.092Z,4.33
2023-05-07T21:10:10.002Z,4.28
2023-05-07T21:12:39.835Z,4.24
2023-05-07T21:15:10.669Z,4.14
2023-05-07T21:17:39.717Z,4.12
2023-05-07T21:20:11.849Z,4.24
2023-05-07T21:22:40.694Z,4.23
2023-05-07T21:25:12.582Z,4.18
2023-05-07T21:27:42.528Z,4.19
2023-05-07T21:30:13.091Z,4.20
2023-05-07T21:32:42.404Z,4.26
2023-05-07T21:35:13.008Z,4.14
2023-05-07T21:37:41.754Z,4.03
2023-05-07T21:40:11.483Z,3.89
2023-05-07T21:42:40.646Z,3.67
2023-05-07T21:45:10.374Z,3.80
2023-05-07T21:47:39.313Z,3.91
2023-05-07T21:50:08.992Z,3.94
2023-05-07T21:52:39.018Z,3.91
2023-05-07T21:55:09.292Z,3.72
2023-05-07T21:57:40.732Z,3.74
2023-05-07T22:00:12.458Z,3.58
2023-05-07T22:02:41.692Z,3.62
2023-05-07T22:05:11.217Z,3.63
2023-05-07T22:07:41.416Z,3.63
2023-05-07T22:10:11.311Z,3.55
2023-05-07T22:12:41.447Z,3.53
2023-05-07T22:15:11.017Z,3.48
2023-05-07T22:17:40.074Z,3.52
2023-05-07T22:20:10.837Z,3.36
2023-05-07T22:22:50.301Z,3.39
2023-05-07T22:25:20.926Z,3.37
2023-05-07T22:27:50.284Z,3.34
2023-05-07T22:30:19.380Z,3.24
2023-05-07T22:32:48.317Z,3.16
2023-05-07T22:35:17.190Z,3.27
2023-05-07T22:37:45.680Z,3.22
2023-05-07T22:40:16.482Z,3.22
2023-05-07T22:42:45.669Z,3.09
2023-05-07T22:45:14.609Z,3.09
2023-05-07T22:47:43.571Z,3.12
2023-05-07T22:50:13.416Z,3.06
2023-05-07T22:52:42.249Z,3.06
2023-05-07T22:55:11.644Z,3.09
2023-05-07T22:57:42.283Z,3.08
2023-05-07T23:00:12.501Z,2.92
2023-05-07T23:02:41.344Z,3.01
2023-05-07T23:05:10.636Z,2.92
2023-05-07T23:07:39.286Z,2.90
2023-05-07T23:10:09.286Z,2.86
2023-05-07T23:12:38.323Z,2.86
2023-05-07T23:15:10.027Z,2.81
2023-05-07T23:17:39.094Z,2.87
2023-05-07T23:20:09.607Z,2.89
2023-05-07T23:22:38.470Z,2.82
2023-05-07T23:25:09.106Z,2.75
2023-05-07T23:27:38.322Z,2.78
2023-05-07T23:30:10.548Z,2.74
2023-05-07T23:32:39.786Z,2.74
2023-05-07T23:35:09.720Z,2.69
2023-05-07T23:37:39.237Z,2.63
2023-05-07T23:40:10.126Z,2.60
2023-05-07T23:42:38.867Z,2.75
2023-05-07T23:45:10.512Z,2.72
2023-05-07T23:47:39.570Z,2.65
2023-05-07T23:50:09.148Z,2.61
2023-05-07T23:52:37.920Z,2.64
2023-05-07T23:55:07.679Z,2.70
2023-05-07T23:57:36.744Z,2.70
